sensor_id;sensor_type;location;lat;lon;timestamp;pressure;altitude;pressure_sealevel;temperature;humidity
64158;BME280;50449;51.528;5.076;2024-01-15T00:01:13;100368.44;;;4.50;66.73
64158;BME280;50449;51.528;5.076;2024-01-15T00:03:38;100370.94;;;4.52;66.60
64158;BME280;50449;51.528;5.076;2024-01-15T00:06:04;100364.75;;;4.51;66.70
64158;BME280;50449;51.528;5.076;2024-01-15T00:08:29;100363.91;;;4.51;66.63
64158;BME280;50449;51.528;5.076;2024-01-15T00:10:55;100356.94;;;4.50;66.50
64158;BME280;50449;51.528;5.076;2024-01-15T00:13:20;100339.25;;;4.49;66.91
64158;BME280;50449;51.528;5.076;2024-01-15T00:15:46;100346.44;;;4.48;66.70
64158;BME280;50449;51.528;5.076;2024-01-15T00:18:11;100342.97;;;4.48;66.47
64158;BME280;50449;51.528;5.076;2024-01-15T00:20:36;100349.53;;;4.45;66.74
64158;BME280;50449;51.528;5.076;2024-01-15T00:23:02;100348.72;;;4.45;66.74
64158;BME280;50449;51.528;5.076;2024-01-15T00:25:27;100337.22;;;4.44;66.48
64158;BME280;50449;51.528;5.076;2024-01-15T00:27:52;100334.53;;;4.44;66.60
64158;BME280;50449;51.528;5.076;2024-01-15T00:30:18;100331.88;;;4.44;66.79
64158;BME280;50449;51.528;5.076;2024-01-15T00:32:43;100328.16;;;4.45;66.82
64158;BME280;50449;51.528;5.076;2024-01-15T00:35:09;100327.34;;;4.45;66.87
64158;BME280;50449;51.528;5.076;2024-01-15T00:37:34;100332.50;;;4.46;66.40
64158;BME280;50449;51.528;5.076;2024-01-15T00:40:00;100316.22;;;4.48;66.43
64158;BME280;50449;51.528;5.076;2024-01-15T00:42:25;100323.22;;;4.49;66.43
64158;BME280;50449;51.528;5.076;2024-01-15T00:44:50;100315.78;;;4.51;66.72
64158;BME280;50449;51.528;5.076;2024-01-15T00:47:18;100318.44;;;4.51;66.68
64158;BME280;50449;51.528;5.076;2024-01-15T00:49:43;100312.28;;;4.50;66.64
64158;BME280;50449;51.528;5.076;2024-01-15T00:52:09;100318.44;;;4.51;66.80
64158;BME280;50449;51.528;5.076;2024-01-15T00:54:34;100302.41;;;4.51;66.56
64158;BME280;50449;51.528;5.076;2024-01-15T00:57:00;100304.88;;;4.52;66.59
64158;BME280;50449;51.528;5.076;2024-01-15T00:59:25;100307.56;;;4.52;66.53
64158;BME280;50449;51.528;5.076;2024-01-15T01:01:50;100306.72;;;4.52;66.75
64158;BME280;50449;51.528;5.076;2024-01-15T01:04:16;100305.06;;;4.51;66.60
64158;BME280;50449;51.528;5.076;2024-01-15T01:06:41;100290.69;;;4.52;66.51
64158;BME280;50449;51.528;5.076;2024-01-15T01:09:07;100290.69;;;4.52;66.75
64158;BME280;50449;51.528;5.076;2024-01-15T01:11:32;100299.53;;;4.52;66.65
64158;BME280;50449;51.528;5.076;2024-01-15T01:13:58;100297.06;;;4.51;66.79
64158;BME280;50449;51.528;5.076;2024-01-15T01:16:23;100296.25;;;4.50;66.73
64158;BME280;50449;51.528;5.076;2024-01-15T01:18:49;100293.78;;;4.49;66.72
64158;BME280;50449;51.528;5.076;2024-01-15T01:21:15;100287.59;;;4.48;66.78
64158;BME280;50449;51.528;5.076;2024-01-15T01:23:40;100285.78;;;4.49;66.71
64158;BME280;50449;51.528;5.076;2024-01-15T01:26:05;100283.91;;;4.49;66.73
64158;BME280;50449;51.528;5.076;2024-01-15T01:28:31;100280.44;;;4.49;66.45
64158;BME280;50449;51.528;5.076;2024-01-15T01:30:56;100283.09;;;4.49;66.51
64158;BME280;50449;51.528;5.076;2024-01-15T01:33:21;100291.94;;;4.49;66.33
64158;BME280;50449;51.528;5.076;2024-01-15T01:35:47;100289.25;;;4.49;66.52
64158;BME280;50449;51.528;5.076;2024-01-15T01:38:12;100299.97;;;4.49;66.48
64158;BME280;50449;51.528;5.076;2024-01-15T01:40:38;100293.78;;;4.49;66.46
64158;BME280;50449;51.528;5.076;2024-01-15T01:43:05;100288.66;;;4.47;66.59
64158;BME280;50449;51.528;5.076;2024-01-15T01:45:30;100285.97;;;4.47;66.53
64158;BME280;50449;51.528;5.076;2024-01-15T01:47:56;100290.28;;;4.48;66.32
64158;BME280;50449;51.528;5.076;2024-01-15T01:50:21;100285.78;;;4.49;66.63
64158;BME280;50449;51.528;5.076;2024-01-15T01:52:47;100282.06;;;4.50;66.56
64158;BME280;50449;51.528;5.076;2024-01-15T01:55:13;100287.41;;;4.50;66.71
64158;BME280;50449;51.528;5.076;2024-01-15T01:57:40;100282.88;;;4.50;66.53
64158;BME280;50449;51.528;5.076;2024-01-15T02:00:07;100285.53;;;4.50;66.70
64158;BME280;50449;51.528;5.076;2024-01-15T02:02:33;100283.91;;;4.49;66.47
64158;BME280;50449;51.528;5.076;2024-01-15T02:04:59;100291.94;;;4.49;66.34
64158;BME280;50449;51.528;5.076;2024-01-15T02:07:24;100293.56;;;4.50;66.42
64158;BME280;50449;51.528;5.076;2024-01-15T02:09:51;100289.25;;;4.49;66.29
64158;BME280;50449;51.528;5.076;2024-01-15T02:12:17;100291.13;;;4.49;66.39
64158;BME280;50449;51.528;5.076;2024-01-15T02:14:42;100287.59;;;4.48;66.21
64158;BME280;50449;51.528;5.076;2024-01-15T02:17:07;100287.84;;;4.47;66.59
64158;BME280;50449;51.528;5.076;2024-01-15T02:19:33;100289.69;;;4.46;66.09
64158;BME280;50449;51.528;5.076;2024-01-15T02:21:58;100287.22;;;4.45;66.16
64158;BME280;50449;51.528;5.076;2024-01-15T02:24:23;100278.59;;;4.43;66.44
64158;BME280;50449;51.528;5.076;2024-01-15T02:26:50;100277.78;;;4.42;66.45
64158;BME280;50449;51.528;5.076;2024-01-15T02:29:15;100278.81;;;4.41;66.33
64158;BME280;50449;51.528;5.076;2024-01-15T02:31:41;100275.31;;;4.41;66.53
64158;BME280;50449;51.528;5.076;2024-01-15T02:34:06;100277.16;;;4.40;66.75
64158;BME280;50449;51.528;5.076;2024-01-15T02:36:32;100277.16;;;4.40;66.25
64158;BME280;50449;51.528;5.076;2024-01-15T02:38:57;100275.31;;;4.41;66.62
64158;BME280;50449;51.528;5.076;2024-01-15T02:41:23;100277.97;;;4.41;66.40
64158;BME280;50449;51.528;5.076;2024-01-15T02:43:48;100274.28;;;4.42;66.64
64158;BME280;50449;51.528;5.076;2024-01-15T02:46:14;100272.63;;;4.41;66.41
64158;BME280;50449;51.528;5.076;2024-01-15T02:48:39;100277.16;;;4.40;66.21
64158;BME280;50449;51.528;5.076;2024-01-15T02:51:05;100276.53;;;4.38;66.43
64158;BME280;50449;51.528;5.076;2024-01-15T02:53:30;100288.91;;;4.39;66.54
64158;BME280;50449;51.528;5.076;2024-01-15T02:55:55;100292.38;;;4.40;66.45
64158;BME280;50449;51.528;5.076;2024-01-15T02:58:21;100287.03;;;4.40;66.46
64158;BME280;50449;51.528;5.076;2024-01-15T03:00:47;100288.66;;;4.41;66.48
64158;BME280;50449;51.528;5.076;2024-01-15T03:03:12;100288.66;;;4.41;66.51
64158;BME280;50449;51.528;5.076;2024-01-15T03:05:38;100267.50;;;4.39;66.38
64158;BME280;50449;51.528;5.076;2024-01-15T03:08:03;100259.69;;;4.38;66.56
64158;BME280;50449;51.528;5.076;2024-01-15T03:10:29;100263.19;;;4.38;66.58
64158;BME280;50449;51.528;5.076;2024-01-15T03:12:54;100266.09;;;4.37;66.49
64158;BME280;50449;51.528;5.076;2024-01-15T03:15:19;100276.78;;;4.37;66.42
64158;BME280;50449;51.528;5.076;2024-01-15T03:17:45;100279.44;;;4.37;66.35
64158;BME280;50449;51.528;5.076;2024-01-15T03:20:11;100273.28;;;4.36;66.42
64158;BME280;50449;51.528;5.076;2024-01-15T03:22:36;100276.78;;;4.37;66.38
64158;BME280;50449;51.528;5.076;2024-01-15T03:25:03;100288.28;;;4.37;66.46
64158;BME280;50449;51.528;5.076;2024-01-15T03:27:29;100289.09;;;4.38;66.23
64158;BME280;50449;51.528;5.076;2024-01-15T03:29:54;100280.28;;;4.37;66.25
64158;BME280;50449;51.528;5.076;2024-01-15T03:32:19;100275.13;;;4.36;66.30
64158;BME280;50449;51.528;5.076;2024-01-15T03:34:45;100275.34;;;4.34;66.47
64158;BME280;50449;51.528;5.076;2024-01-15T03:37:12;100270.22;;;4.32;66.23
64158;BME280;50449;51.528;5.076;2024-01-15T03:39:37;100280.28;;;4.30;66.31
64158;BME280;50449;51.528;5.076;2024-01-15T03:42:03;100278.66;;;4.29;66.62
64158;BME280;50449;51.528;5.076;2024-01-15T03:44:29;100274.56;;;4.27;66.43
64158;BME280;50449;51.528;5.076;2024-01-15T03:46:54;100276.41;;;4.26;66.37
64158;BME280;50449;51.528;5.076;2024-01-15T03:49:20;100263.25;;;4.25;66.50
64158;BME280;50449;51.528;5.076;2024-01-15T03:51:45;100258.94;;;4.24;66.39
64158;BME280;50449;51.528;5.076;2024-01-15T03:54:11;100279.91;;;4.20;66.41
64158;BME280;50449;51.528;5.076;2024-01-15T03:56:36;100266.19;;;4.17;66.52
64158;BME280;50449;51.528;5.076;2024-01-15T03:59:01;100264.50;;;4.16;66.63
64158;BME280;50449;51.528;5.076;2024-01-15T04:01:27;100248.91;;;4.12;66.90
64158;BME280;50449;51.528;5.076;2024-01-15T04:03:52;100255.06;;;4.13;66.75
64158;BME280;50449;51.528;5.076;2024-01-15T04:06:18;100244.38;;;4.13;66.73
64158;BME280;50449;51.528;5.076;2024-01-15T04:08:43;100252.41;;;4.13;66.66
64158;BME280;50449;51.528;5.076;2024-01-15T04:11:09;100249.31;;;4.16;66.78
64158;BME280;50449;51.528;5.076;2024-01-15T04:13:34;100252.56;;;4.18;66.66
64158;BME280;50449;51.528;5.076;2024-01-15T04:16:00;100256.91;;;4.19;66.46
64158;BME280;50449;51.528;5.076;2024-01-15T04:18:26;100257.72;;;4.20;66.56
64158;BME280;50449;51.528;5.076;2024-01-15T04:20:51;100259.34;;;4.21;66.47
64158;BME280;50449;51.528;5.076;2024-01-15T04:23:16;100257.72;;;4.20;66.48
64158;BME280;50449;51.528;5.076;2024-01-15T04:25:42;100260.41;;;4.20;66.42
64158;BME280;50449;51.528;5.076;2024-01-15T04:28:09;100254.00;;;4.21;66.46
64158;BME280;50449;51.528;5.076;2024-01-15T04:30:34;100241.69;;;4.20;66.30
64158;BME280;50449;51.528;5.076;2024-01-15T04:33:00;100245.16;;;4.20;66.52
64158;BME280;50449;51.528;5.076;2024-01-15T04:35:25;100243.31;;;4.21;66.52
64158;BME280;50449;51.528;5.076;2024-01-15T04:37:51;100237.75;;;4.22;66.62
64158;BME280;50449;51.528;5.076;2024-01-15T04:40:17;100234.88;;;4.24;66.44
64158;BME280;50449;51.528;5.076;2024-01-15T04:42:42;100235.50;;;4.26;66.37
64158;BME280;50449;51.528;5.076;2024-01-15T04:45:08;100231.78;;;4.27;66.77
64158;BME280;50449;51.528;5.076;2024-01-15T04:47:33;100221.91;;;4.27;66.62
64158;BME280;50449;51.528;5.076;2024-01-15T04:49:59;100225.19;;;4.29;66.35
64158;BME280;50449;51.528;5.076;2024-01-15T04:52:24;100219.84;;;4.29;66.75
64158;BME280;50449;51.528;5.076;2024-01-15T04:54:50;100220.66;;;4.30;66.87
64158;BME280;50449;51.528;5.076;2024-01-15T04:57:15;100220.66;;;4.30;66.70
64158;BME280;50449;51.528;5.076;2024-01-15T04:59:40;100212.44;;;4.31;66.61
64158;BME280;50449;51.528;5.076;2024-01-15T05:02:06;100212.44;;;4.31;66.30
64158;BME280;50449;51.528;5.076;2024-01-15T05:04:31;100205.22;;;4.32;66.47
64158;BME280;50449;51.528;5.076;2024-01-15T05:06:58;100204.19;;;4.33;66.51
64158;BME280;50449;51.528;5.076;2024-01-15T05:09:23;100206.03;;;4.32;66.38
64158;BME280;50449;51.528;5.076;2024-01-15T05:11:48;100201.50;;;4.33;66.71
64158;BME280;50449;51.528;5.076;2024-01-15T05:14:14;100202.53;;;4.32;66.29
64158;BME280;50449;51.528;5.076;2024-01-15T05:16:44;100202.53;;;4.32;66.55
64158;BME280;50449;51.528;5.076;2024-01-15T05:19:11;100197.41;;;4.30;66.56
64158;BME280;50449;51.528;5.076;2024-01-15T05:21:36;100197.41;;;4.30;66.62
64158;BME280;50449;51.528;5.076;2024-01-15T05:24:02;100203.59;;;4.31;66.48
64158;BME280;50449;51.528;5.076;2024-01-15T05:26:27;100205.44;;;4.30;66.34
64158;BME280;50449;51.528;5.076;2024-01-15T05:28:53;100196.81;;;4.28;66.73
64158;BME280;50449;51.528;5.076;2024-01-15T05:31:18;100191.69;;;4.27;66.35
64158;BME280;50449;51.528;5.076;2024-01-15T05:33:43;100184.91;;;4.24;66.32
64158;BME280;50449;51.528;5.076;2024-01-15T05:36:09;100183.25;;;4.23;66.22
64158;BME280;50449;51.528;5.076;2024-01-15T05:38:34;100182.66;;;4.21;66.42
64158;BME280;50449;51.528;5.076;2024-01-15T05:40:59;100182.66;;;4.21;66.60
64158;BME280;50449;51.528;5.076;2024-01-15T05:43:25;100177.31;;;4.21;66.43
64158;BME280;50449;51.528;5.076;2024-01-15T05:45:50;100171.13;;;4.21;66.50
64158;BME280;50449;51.528;5.076;2024-01-15T05:48:15;100183.47;;;4.22;66.28
64158;BME280;50449;51.528;5.076;2024-01-15T05:50:41;100184.50;;;4.21;66.63
64158;BME280;50449;51.528;5.076;2024-01-15T05:53:06;100186.16;;;4.22;66.54
64158;BME280;50449;51.528;5.076;2024-01-15T05:55:32;100198.72;;;4.21;66.24
64158;BME280;50449;51.528;5.076;2024-01-15T05:57:57;100194.38;;;4.20;66.29
64158;BME280;50449;51.528;5.076;2024-01-15T06:00:23;100197.06;;;4.20;66.38
64158;BME280;50449;51.528;5.076;2024-01-15T06:02:48;100194.63;;;4.19;66.41
64158;BME280;50449;51.528;5.076;2024-01-15T06:05:13;100192.13;;;4.17;66.46
64158;BME280;50449;51.528;5.076;2024-01-15T06:07:39;100180.63;;;4.17;66.61
64158;BME280;50449;51.528;5.076;2024-01-15T06:10:05;100186.19;;;4.15;66.42
64158;BME280;50449;51.528;5.076;2024-01-15T06:12:30;100180.63;;;4.17;66.46
64158;BME280;50449;51.528;5.076;2024-01-15T06:14:57;100181.44;;;4.17;66.30
64158;BME280;50449;51.528;5.076;2024-01-15T06:17:22;100173.44;;;4.17;66.56
64158;BME280;50449;51.528;5.076;2024-01-15T06:19:48;100176.31;;;4.16;66.27
64158;BME280;50449;51.528;5.076;2024-01-15T06:22:13;100169.13;;;4.16;66.71
64158;BME280;50449;51.528;5.076;2024-01-15T06:24:38;100167.03;;;4.18;66.46
64158;BME280;50449;51.528;5.076;2024-01-15T06:27:04;100164.59;;;4.17;66.55
64158;BME280;50449;51.528;5.076;2024-01-15T06:29:29;100163.78;;;4.16;66.53
64158;BME280;50449;51.528;5.076;2024-01-15T06:31:55;100161.91;;;4.17;66.56
64158;BME280;50449;51.528;5.076;2024-01-15T06:34:20;100159.25;;;4.17;66.26
64158;BME280;50449;51.528;5.076;2024-01-15T06:36:46;100160.06;;;4.17;66.48
64158;BME280;50449;51.528;5.076;2024-01-15T06:39:11;100163.34;;;4.19;66.32
64158;BME280;50449;51.528;5.076;2024-01-15T06:41:37;100162.31;;;4.20;66.34
64158;BME280;50449;51.528;5.076;2024-01-15T06:44:09;100173.81;;;4.21;66.34
64158;BME280;50449;51.528;5.076;2024-01-15T06:46:34;100172.78;;;4.22;66.61
64158;BME280;50449;51.528;5.076;2024-01-15T06:49:00;100172.78;;;4.22;66.41
64158;BME280;50449;51.528;5.076;2024-01-15T06:51:25;100182.66;;;4.21;66.50
64158;BME280;50449;51.528;5.076;2024-01-15T06:53:51;100180.19;;;4.20;66.29
64158;BME280;50449;51.528;5.076;2024-01-15T06:56:16;100171.38;;;4.19;66.62
64158;BME280;50449;51.528;5.076;2024-01-15T06:58:41;100174.84;;;4.20;66.44
64158;BME280;50449;51.528;5.076;2024-01-15T07:01:07;100176.91;;;4.18;66.72
64158;BME280;50449;51.528;5.076;2024-01-15T07:03:33;100176.91;;;4.18;66.71
64158;BME280;50449;51.528;5.076;2024-01-15T07:05:58;100171.56;;;4.18;66.37
64158;BME280;50449;51.528;5.076;2024-01-15T07:08:24;100170.97;;;4.16;66.53
64158;BME280;50449;51.528;5.076;2024-01-15T07:10:49;100180.84;;;4.15;66.45
64158;BME280;50449;51.528;5.076;2024-01-15T07:13:14;100185.56;;;4.13;66.43
64158;BME280;50449;51.528;5.076;2024-01-15T07:15:40;100188.25;;;4.13;66.44
64158;BME280;50449;51.528;5.076;2024-01-15T07:18:05;100190.91;;;4.13;66.42
64158;BME280;50449;51.528;5.076;2024-01-15T07:20:31;100194.63;;;4.12;66.73
64158;BME280;50449;51.528;5.076;2024-01-15T07:22:56;100200.59;;;4.14;66.51
64158;BME280;50449;51.528;5.076;2024-01-15T07:25:22;100193.59;;;4.13;66.56
64158;BME280;50449;51.528;5.076;2024-01-15T07:27:47;100188.47;;;4.11;66.55
64158;BME280;50449;51.528;5.076;2024-01-15T07:30:13;100185.19;;;4.09;66.35
64158;BME280;50449;51.528;5.076;2024-01-15T07:32:38;100188.06;;;4.08;66.36
64158;BME280;50449;51.528;5.076;2024-01-15T07:35:04;100193.41;;;4.08;66.72
64158;BME280;50449;51.528;5.076;2024-01-15T07:37:31;100193.22;;;4.09;66.65
64158;BME280;50449;51.528;5.076;2024-01-15T07:39:56;100190.75;;;4.08;66.57
64158;BME280;50449;51.528;5.076;2024-01-15T07:42:21;100194.47;;;4.07;66.58
64158;BME280;50449;51.528;5.076;2024-01-15T07:44:47;100202.47;;;4.07;66.70
64158;BME280;50449;51.528;5.076;2024-01-15T07:47:13;100197.94;;;4.07;66.41
64158;BME280;50449;51.528;5.076;2024-01-15T07:49:38;100205.16;;;4.07;66.62
64158;BME280;50449;51.528;5.076;2024-01-15T07:52:04;100214.41;;;4.04;66.40
64158;BME280;50449;51.528;5.076;2024-01-15T07:54:31;100211.75;;;4.04;66.82
64158;BME280;50449;51.528;5.076;2024-01-15T07:56:59;100210.94;;;4.04;66.53
64158;BME280;50449;51.528;5.076;2024-01-15T07:59:24;100209.88;;;4.05;66.44
64158;BME280;50449;51.528;5.076;2024-01-15T08:01:51;100209.88;;;4.05;66.45
64158;BME280;50449;51.528;5.076;2024-01-15T08:04:17;100203.53;;;4.06;66.50
64158;BME280;50449;51.528;5.076;2024-01-15T08:06:42;100202.09;;;4.03;66.68
64158;BME280;50449;51.528;5.076;2024-01-15T08:09:08;100198.56;;;4.03;66.75
64158;BME280;50449;51.528;5.076;2024-01-15T08:11:34;100215.84;;;4.00;66.53
64158;BME280;50449;51.528;5.076;2024-01-15T08:14:00;100204.59;;;3.98;66.67
64158;BME280;50449;51.528;5.076;2024-01-15T08:16:25;100224.53;;;3.96;66.76
64158;BME280;50449;51.528;5.076;2024-01-15T08:18:52;100217.16;;;3.91;66.89
64158;BME280;50449;51.528;5.076;2024-01-15T08:21:18;100219.41;;;3.87;66.68
64158;BME280;50449;51.528;5.076;2024-01-15T08:23:44;100230.31;;;3.86;66.60
64158;BME280;50449;51.528;5.076;2024-01-15T08:26:10;100227.47;;;3.81;66.75
64158;BME280;50449;51.528;5.076;2024-01-15T08:28:36;100218.03;;;3.78;67.05
64158;BME280;50449;51.528;5.076;2024-01-15T08:31:01;100212.88;;;3.77;67.00
64158;BME280;50449;51.528;5.076;2024-01-15T08:33:28;100211.44;;;3.74;67.44
64158;BME280;50449;51.528;5.076;2024-01-15T08:35:53;100216.78;;;3.74;67.17
64158;BME280;50449;51.528;5.076;2024-01-15T08:38:19;100204.25;;;3.75;67.18
64158;BME280;50449;51.528;5.076;2024-01-15T08:40:44;100213.06;;;3.75;67.35
64158;BME280;50449;51.528;5.076;2024-01-15T08:43:10;100219.47;;;3.74;67.17
64158;BME280;50449;51.528;5.076;2024-01-15T08:45:35;100226.66;;;3.74;67.46
64158;BME280;50449;51.528;5.076;2024-01-15T08:48:00;100229.09;;;3.75;67.35
64158;BME280;50449;51.528;5.076;2024-01-15T08:50:26;100220.28;;;3.75;67.19
64158;BME280;50449;51.528;5.076;2024-01-15T08:52:51;100226.03;;;3.78;67.22
64158;BME280;50449;51.528;5.076;2024-01-15T08:55:17;100226.63;;;3.80;67.16
64158;BME280;50449;51.528;5.076;2024-01-15T08:57:42;100227.22;;;3.82;67.19
64158;BME280;50449;51.528;5.076;2024-01-15T09:00:08;100229.72;;;3.84;67.14
64158;BME280;50449;51.528;5.076;2024-01-15T09:02:34;100233.00;;;3.86;67.01
64158;BME280;50449;51.528;5.076;2024-01-15T09:05:01;100233.00;;;3.86;67.16
64158;BME280;50449;51.528;5.076;2024-01-15T09:07:26;100238.34;;;3.86;66.80
64158;BME280;50449;51.528;5.076;2024-01-15T09:09:52;100249.84;;;3.86;67.23
64158;BME280;50449;51.528;5.076;2024-01-15T09:12:18;100230.53;;;3.84;67.15
64158;BME280;50449;51.528;5.076;2024-01-15T09:14:44;100228.66;;;3.85;67.13
64158;BME280;50449;51.528;5.076;2024-01-15T09:17:09;100225.19;;;3.84;67.09
64158;BME280;50449;51.528;5.076;2024-01-15T09:19:35;100213.44;;;3.85;67.19
64158;BME280;50449;51.528;5.076;2024-01-15T09:22:00;100204.41;;;3.86;67.23
64158;BME280;50449;51.528;5.076;2024-01-15T09:24:26;100210.56;;;3.87;67.09
64158;BME280;50449;51.528;5.076;2024-01-15T09:26:51;100213.06;;;3.88;67.12
64158;BME280;50449;51.528;5.076;2024-01-15T09:29:17;100218.16;;;3.90;67.11
64158;BME280;50449;51.528;5.076;2024-01-15T09:31:43;100209.94;;;3.92;67.17
64158;BME280;50449;51.528;5.076;2024-01-15T09:34:09;100210.56;;;3.94;67.06
64158;BME280;50449;51.528;5.076;2024-01-15T09:36:43;100210.31;;;3.95;67.01
64158;BME280;50449;51.528;5.076;2024-01-15T09:39:09;100216.53;;;3.96;66.84
64158;BME280;50449;51.528;5.076;2024-01-15T09:41:36;100222.44;;;3.98;66.98
64158;BME280;50449;51.528;5.076;2024-01-15T09:44:03;100227.59;;;3.99;66.67
64158;BME280;50449;51.528;5.076;2024-01-15T09:46:29;100221.44;;;3.99;66.79
64158;BME280;50449;51.528;5.076;2024-01-15T09:48:55;100231.88;;;4.00;66.87
64158;BME280;50449;51.528;5.076;2024-01-15T09:51:20;100239.09;;;4.00;66.75
64158;BME280;50449;51.528;5.076;2024-01-15T09:53:47;100237.47;;;3.99;66.82
64158;BME280;50449;51.528;5.076;2024-01-15T09:56:14;100236.66;;;3.98;66.45
64158;BME280;50449;51.528;5.076;2024-01-15T09:58:40;100243.81;;;3.98;66.47
64158;BME280;50449;51.528;5.076;2024-01-15T10:01:08;100251.03;;;3.97;66.59
64158;BME280;50449;51.528;5.076;2024-01-15T10:03:34;100249.41;;;3.96;66.64
64158;BME280;50449;51.528;5.076;2024-01-15T10:05:59;100246.13;;;3.94;66.77
64158;BME280;50449;51.528;5.076;2024-01-15T10:08:25;100248.97;;;3.93;66.87
64158;BME280;50449;51.528;5.076;2024-01-15T10:10:51;100247.56;;;3.90;66.67
64158;BME280;50449;51.528;5.076;2024-01-15T10:13:17;100251.47;;;3.87;66.88
64158;BME280;50449;51.528;5.076;2024-01-15T10:15:45;100247.97;;;3.87;67.25
64158;BME280;50449;51.528;5.076;2024-01-15T10:18:12;100246.75;;;3.89;67.08
64158;BME280;50449;51.528;5.076;2024-01-15T10:20:37;100246.75;;;3.89;67.14
64158;BME280;50449;51.528;5.076;2024-01-15T10:23:03;100244.88;;;3.90;67.08
64158;BME280;50449;51.528;5.076;2024-01-15T10:25:29;100246.31;;;3.93;67.05
64158;BME280;50449;51.528;5.076;2024-01-15T10:28:03;100236.47;;;3.93;66.79
64158;BME280;50449;51.528;5.076;2024-01-15T10:30:29;100230.06;;;3.94;66.74
64158;BME280;50449;51.528;5.076;2024-01-15T10:33:05;100237.91;;;3.96;66.89
64158;BME280;50449;51.528;5.076;2024-01-15T10:35:33;100239.53;;;3.97;67.06
64158;BME280;50449;51.528;5.076;2024-01-15T10:38:00;100235.22;;;3.96;66.69
64158;BME280;50449;51.528;5.076;2024-01-15T10:40:25;100234.63;;;3.94;66.63
64158;BME280;50449;51.528;5.076;2024-01-15T10:42:51;100232.13;;;3.92;66.88
64158;BME280;50449;51.528;5.076;2024-01-15T10:45:17;100232.34;;;3.90;66.81
64158;BME280;50449;51.528;5.076;2024-01-15T10:47:43;100230.50;;;3.91;67.09
64158;BME280;50449;51.528;5.076;2024-01-15T10:50:10;100244.47;;;3.93;66.91
64158;BME280;50449;51.528;5.076;2024-01-15T10:52:37;100247.16;;;3.93;66.94
64158;BME280;50449;51.528;5.076;2024-01-15T10:55:03;100244.47;;;3.93;66.79
64158;BME280;50449;51.528;5.076;2024-01-15T10:57:30;100253.09;;;3.95;66.92
64158;BME280;50449;51.528;5.076;2024-01-15T10:59:56;100245.91;;;3.96;66.91
64158;BME280;50449;51.528;5.076;2024-01-15T11:02:21;100245.69;;;3.97;66.53
64158;BME280;50449;51.528;5.076;2024-01-15T11:04:47;100240.34;;;3.97;66.72
64158;BME280;50449;51.528;5.076;2024-01-15T11:07:13;100243.81;;;3.98;66.78
64158;BME280;50449;51.528;5.076;2024-01-15T11:09:39;100242.19;;;3.97;67.09
64158;BME280;50449;51.528;5.076;2024-01-15T11:12:10;100249.41;;;3.96;67.02
64158;BME280;50449;51.528;5.076;2024-01-15T11:14:49;100243.25;;;3.96;66.94
64158;BME280;50449;51.528;5.076;2024-01-15T11:17:16;100252.50;;;3.93;67.19
64158;BME280;50449;51.528;5.076;2024-01-15T11:19:48;100261.72;;;3.90;66.88
64158;BME280;50449;51.528;5.076;2024-01-15T11:24:55;100251.28;;;3.89;66.92
64158;BME280;50449;51.528;5.076;2024-01-15T11:27:46;100254.75;;;3.89;67.14
64158;BME280;50449;51.528;5.076;2024-01-15T11:30:19;100256.38;;;3.90;67.27
64158;BME280;50449;51.528;5.076;2024-01-15T11:32:47;100266.88;;;3.92;67.17
64158;BME280;50449;51.528;5.076;2024-01-15T11:35:13;100266.69;;;3.94;67.36
64158;BME280;50449;51.528;5.076;2024-01-15T11:42:58;100261.72;;;3.90;67.06
64158;BME280;50449;51.528;5.076;2024-01-15T11:45:23;100261.97;;;3.89;67.20
64158;BME280;50449;51.528;5.076;2024-01-15T11:48:15;100268.72;;;3.92;67.23
64158;BME280;50449;51.528;5.076;2024-01-15T11:50:49;100265.84;;;3.93;67.02
64158;BME280;50449;51.528;5.076;2024-01-15T11:56:01;100264.63;;;3.96;67.06
64158;BME280;50449;51.528;5.076;2024-01-15T11:58:27;100262.75;;;3.96;67.09
64158;BME280;50449;51.528;5.076;2024-01-15T12:00:53;100264.81;;;3.94;66.85
64158;BME280;50449;51.528;5.076;2024-01-15T12:03:23;100257.84;;;3.93;67.07
64158;BME280;50449;51.528;5.076;2024-01-15T12:05:48;100258.66;;;3.94;66.93
64158;BME280;50449;51.528;5.076;2024-01-15T12:08:14;100260.28;;;3.95;67.09
64158;BME280;50449;51.528;5.076;2024-01-15T12:10:40;100261.09;;;3.95;67.04
64158;BME280;50449;51.528;5.076;2024-01-15T12:15:34;100264.81;;;3.94;67.03
64158;BME280;50449;51.528;5.076;2024-01-15T12:18:01;100274.47;;;3.95;67.26
64158;BME280;50449;51.528;5.076;2024-01-15T12:20:31;100270.53;;;3.98;67.00
64158;BME280;50449;51.528;5.076;2024-01-15T12:22:57;100261.72;;;3.97;67.27
64158;BME280;50449;51.528;5.076;2024-01-15T12:25:24;100272.41;;;3.97;67.06
64158;BME280;50449;51.528;5.076;2024-01-15T12:27:51;100265.19;;;3.98;66.96
64158;BME280;50449;51.528;5.076;2024-01-15T12:30:17;100266.88;;;3.99;67.24
64158;BME280;50449;51.528;5.076;2024-01-15T12:32:44;100272.22;;;3.99;66.92
64158;BME280;50449;51.528;5.076;2024-01-15T12:35:10;100264.19;;;3.99;67.05
64158;BME280;50449;51.528;5.076;2024-01-15T12:37:36;100265.19;;;3.98;66.99
64158;BME280;50449;51.528;5.076;2024-01-15T12:40:03;100275.06;;;3.97;67.33
64158;BME280;50449;51.528;5.076;2024-01-15T12:42:31;100281.47;;;3.96;67.32
64158;BME280;50449;51.528;5.076;2024-01-15T12:44:57;100283.09;;;3.97;67.01
64158;BME280;50449;51.528;5.076;2024-01-15T12:47:22;100290.31;;;3.97;67.28
64158;BME280;50449;51.528;5.076;2024-01-15T12:49:48;100296.47;;;3.97;67.05
64158;BME280;50449;51.528;5.076;2024-01-15T12:52:19;100306.94;;;3.99;67.17
64158;BME280;50449;51.528;5.076;2024-01-15T12:54:46;100300.56;;;4.00;67.05
64158;BME280;50449;51.528;5.076;2024-01-15T12:57:12;100312.06;;;4.00;66.97
64158;BME280;50449;51.528;5.076;2024-01-15T12:59:38;100322.56;;;4.02;67.09
64158;BME280;50449;51.528;5.076;2024-01-15T13:02:03;100319.88;;;4.02;66.92
64158;BME280;50449;51.528;5.076;2024-01-15T13:04:29;100311.88;;;4.02;67.49
64158;BME280;50449;51.528;5.076;2024-01-15T13:06:54;100315.34;;;4.02;67.20